Time;durP1;ratioP1;P1;durP2;ratioP2;P2;SDS_P1;SDS_P2;PMS_P1;PMS_P2;Temp;Humidity;BMP_temperature;BMP_pressure;BME280_temperature;BME280_humidity;BME280_pressure;Samples;Min_cycle;Max_cycle;Signal;HPM_P1;HPM_P2
2023/05/27 00:02:16;;;;;;;7.20;4.10;;;21.40;45.50;22.10;101929.00;;;;5009468;28;20233;-52
2023/05/27 00:04:42;;;;;;;5.10;3.87;;;21.40;45.50;22.10;101927.00;;;;5010490;28;20222;-51
2023/05/27 00:07:08;;;;;;;6.03;4.00;;;21.30;45.40;22.10;101938.00;;;;5010099;28;20701;-51
2023/05/27 00:09:33;;;;;;;6.17;4.03;;;21.40;45.60;22.10;101929.00;;;;5009075;28;20191;-51
2023/05/27 00:12:00;;;;;;;7.20;3.93;;;21.30;45.40;22.00;101929.00;;;;5010508;28;20178;-51
2023/05/27 00:14:26;;;;;;;5.30;3.70;;;21.30;45.40;22.00;101926.00;;;;5008892;28;20183;-51
2023/05/27 00:16:51;;;;;;;7.50;4.20;;;21.30;45.60;22.00;101923.00;;;;5010167;28;20662;-51
2023/05/27 00:19:17;;;;;;;6.27;3.70;;;21.30;45.70;22.00;101915.00;;;;5013827;28;20203;-51
2023/05/27 00:21:43;;;;;;;7.23;4.20;;;21.20;45.70;22.00;101913.00;;;;5010249;28;20203;-51
2023/05/27 00:24:10;;;;;;;6.87;4.13;;;21.20;45.70;21.90;101908.00;;;;5010025;28;20227;-51
2023/05/27 00:26:35;;;;;;;5.63;3.80;;;21.30;45.80;21.90;101911.00;;;;5016124;28;20209;-51
2023/05/27 00:29:01;;;;;;;6.60;4.07;;;21.20;45.80;21.90;101913.00;;;;5010554;28;20198;-52
2023/05/27 00:31:27;;;;;;;6.63;3.77;;;21.20;45.80;21.90;101905.00;;;;5010180;28;20274;-52
2023/05/27 00:33:53;;;;;;;5.40;3.80;;;21.20;45.90;21.80;101907.00;;;;5009694;28;20248;-52
2023/05/27 00:36:18;;;;;;;6.67;4.10;;;21.10;45.80;21.80;101902.00;;;;5009844;28;20255;-52
2023/05/27 00:38:44;;;;;;;5.77;3.87;;;21.10;45.80;21.80;101909.00;;;;5010843;28;20280;-52
2023/05/27 00:41:12;;;;;;;7.47;3.97;;;21.10;45.70;21.80;101903.00;;;;5015325;28;20674;-52
2023/05/27 00:43:38;;;;;;;6.60;3.73;;;21.00;45.60;21.80;101908.00;;;;5008481;28;20217;-52
2023/05/27 00:46:04;;;;;;;5.70;3.97;;;21.00;45.70;21.70;101908.00;;;;5009701;28;20249;-52
2023/05/27 00:48:30;;;;;;;6.43;3.83;;;21.00;45.80;21.70;101914.00;;;;5009487;28;20210;-51
2023/05/27 00:50:55;;;;;;;6.00;3.80;;;21.00;45.80;21.70;101911.00;;;;5009403;28;20183;-52
2023/05/27 00:53:21;;;;;;;6.90;3.87;;;21.00;45.80;21.60;101845.00;;;;5008222;28;20193;-52
2023/05/27 00:55:47;;;;;;;8.73;4.10;;;21.00;45.80;21.60;101917.00;;;;4972337;28;20223;-52
2023/05/27 00:58:13;;;;;;;8.10;4.13;;;21.00;45.80;21.60;101913.00;;;;5007775;28;20222;-52
2023/05/27 01:00:39;;;;;;;6.23;3.93;;;21.00;45.90;21.60;101917.00;;;;5009253;28;20213;-52
2023/05/27 01:03:06;;;;;;;6.40;3.80;;;20.90;45.90;21.60;101916.00;;;;5009005;28;20602;-52
2023/05/27 01:05:32;;;;;;;5.03;3.50;;;20.90;46.00;21.60;101910.00;;;;5009121;28;20709;-52
2023/05/27 01:08:29;;;;;;;6.03;4.20;;;20.90;46.00;21.50;101912.00;;;;5008904;28;20290;-52
2023/05/27 01:10:55;;;;;;;7.60;4.47;;;20.90;46.00;21.50;101916.00;;;;4992313;28;20549;-52
2023/05/27 01:13:39;;;;;;;6.13;3.87;;;20.90;46.00;21.50;101911.00;;;;4991284;28;20176;-52
2023/05/27 01:16:12;;;;;;;4.30;3.40;;;20.90;46.10;21.50;101921.00;;;;4992766;28;20188;-52
2023/05/27 01:18:40;;;;;;;6.67;3.83;;;20.80;46.10;21.40;101916.00;;;;5008034;28;20240;-51
2023/05/27 01:21:07;;;;;;;7.07;3.80;;;20.80;46.00;21.40;101912.00;;;;5007764;28;20191;-52
2023/05/27 01:23:33;;;;;;;7.20;4.10;;;20.80;46.10;21.40;101909.00;;;;5008884;28;20686;-51
2023/05/27 01:25:59;;;;;;;8.10;3.97;;;20.80;46.00;21.40;101908.00;;;;5009419;28;20178;-51
2023/05/27 01:28:25;;;;;;;5.67;3.73;;;20.80;46.10;21.40;101902.00;;;;5009123;28;20200;-51
2023/05/27 01:30:53;;;;;;;6.23;3.70;;;20.80;46.10;21.30;101905.00;;;;5008727;28;20278;-51
2023/05/27 01:33:21;;;;;;;7.07;4.13;;;20.80;46.10;21.30;101903.00;;;;4991339;28;20184;-52
2023/05/27 01:35:52;;;;;;;5.77;3.70;;;20.80;46.10;21.30;101909.00;;;;5007234;28;20684;-50
2023/05/27 01:38:20;;;;;;;5.60;3.70;;;20.80;46.20;21.30;101884.00;;;;5008473;28;20203;-52
2023/05/27 01:40:47;;;;;;;5.90;3.63;;;20.70;46.00;21.30;101913.00;;;;4990378;28;20194;-52
2023/05/27 01:43:13;;;;;;;5.70;3.90;;;20.70;46.10;21.20;101897.00;;;;4974814;28;20233;-52
2023/05/27 01:45:39;;;;;;;5.83;3.83;;;20.70;46.20;21.20;101897.00;;;;5007282;28;20220;-51
2023/05/27 01:48:05;;;;;;;5.97;3.57;;;20.70;46.20;21.20;101903.00;;;;4990784;28;20204;-52
2023/05/27 01:50:31;;;;;;;7.70;3.80;;;20.60;46.20;21.20;101899.00;;;;5010134;28;20219;-51
2023/05/27 01:52:57;;;;;;;7.33;4.00;;;20.70;46.30;21.20;101901.00;;;;5010504;28;20515;-51
2023/05/27 01:55:23;;;;;;;6.13;3.87;;;20.60;46.20;21.20;101908.00;;;;5007441;28;20184;-52
2023/05/27 01:57:48;;;;;;;5.67;3.80;;;20.60;46.20;21.10;101914.00;;;;5008377;28;20217;-52
2023/05/27 02:00:15;;;;;;;7.40;4.03;;;20.60;46.30;21.10;101914.00;;;;5008345;28;20215;-52
2023/05/27 02:02:41;;;;;;;5.60;3.43;;;20.60;46.30;20.90;101912.00;;;;5008524;28;20670;-52
2023/05/27 02:05:07;;;;;;;6.23;4.17;;;20.60;46.30;21.10;101914.00;;;;5008281;28;20332;-52
2023/05/27 02:07:33;;;;;;;6.47;3.80;;;20.60;46.30;21.10;101911.00;;;;5008278;28;20189;-52
2023/05/27 02:09:58;;;;;;;6.27;3.53;;;20.60;46.30;21.00;101910.00;;;;5008133;28;20188;-51
2023/05/27 02:12:24;;;;;;;5.83;3.73;;;20.50;46.20;21.00;101907.00;;;;5008348;28;20263;-51
2023/05/27 02:14:51;;;;;;;5.73;3.90;;;20.50;46.20;21.00;101908.00;;;;5006970;28;20184;-51
2023/05/27 02:17:17;;;;;;;6.43;3.50;;;20.50;46.20;21.00;101900.00;;;;5008259;28;20191;-53
2023/05/27 02:19:43;;;;;;;6.33;3.90;;;20.50;46.20;20.90;101901.00;;;;5008348;28;20501;-51
2023/05/27 02:22:08;;;;;;;6.23;3.63;;;20.50;46.20;20.90;101901.00;;;;5008072;28;20206;-51
2023/05/27 02:24:34;;;;;;;6.13;3.60;;;20.50;46.20;20.90;101909.00;;;;5008870;28;20195;-51
2023/05/27 02:27:01;;;;;;;6.17;3.23;;;20.40;46.20;20.90;101909.00;;;;5016411;28;20227;-52
2023/05/27 02:29:26;;;;;;;5.50;3.50;;;20.40;46.10;20.90;101913.00;;;;5008015;28;20211;-51
2023/05/27 02:31:52;;;;;;;5.90;4.07;;;20.40;46.20;20.80;101900.00;;;;5008522;28;20263;-51
2023/05/27 02:34:18;;;;;;;6.33;3.70;;;20.40;46.30;20.80;101900.00;;;;5008283;28;20601;-51
2023/05/27 02:36:44;;;;;;;7.13;3.77;;;20.40;46.30;20.80;101913.00;;;;5008688;28;20193;-51
2023/05/27 02:39:10;;;;;;;6.47;3.80;;;20.40;46.40;20.70;101915.00;;;;5009117;28;20214;-52
2023/05/27 02:41:36;;;;;;;5.97;3.83;;;20.40;46.40;20.70;101917.00;;;;5013627;28;20257;-50
2023/05/27 02:44:02;;;;;;;5.83;3.67;;;20.40;46.40;20.70;101907.00;;;;5008172;28;20699;-52
2023/05/27 02:46:28;;;;;;;6.20;3.60;;;20.30;46.40;20.70;101904.00;;;;5008040;28;20184;-52
2023/05/27 02:48:54;;;;;;;6.50;4.00;;;20.40;46.50;20.70;101902.00;;;;5007829;28;20226;-51
2023/05/27 02:51:21;;;;;;;5.90;3.77;;;20.30;46.40;20.60;101894.00;;;;5008105;28;20182;-51
2023/05/27 02:53:47;;;;;;;5.97;3.70;;;20.30;46.40;20.60;101902.00;;;;5011121;28;20184;-52
2023/05/27 02:56:12;;;;;;;6.07;3.90;;;20.30;46.40;20.60;101899.00;;;;5011580;28;20181;-52
2023/05/27 02:58:38;;;;;;;5.70;3.50;;;20.30;46.40;20.60;101890.00;;;;5011550;28;20527;-51
2023/05/27 03:01:04;;;;;;;6.20;3.77;;;20.20;46.40;20.50;101900.00;;;;5011640;28;20811;-51
2023/05/27 03:03:30;;;;;;;5.63;3.43;;;20.20;46.40;20.50;101902.00;;;;5011312;28;20238;-50
2023/05/27 03:05:56;;;;;;;6.00;3.40;;;20.20;46.40;20.50;101904.00;;;;5011122;28;20262;-50
2023/05/27 03:08:21;;;;;;;6.07;3.57;;;20.20;46.50;20.50;101910.00;;;;5011175;28;20196;-51
2023/05/27 03:10:47;;;;;;;7.17;3.90;;;20.20;46.50;20.40;101891.00;;;;5012578;28;20190;-52
2023/05/27 03:13:13;;;;;;;4.83;3.63;;;20.20;46.50;20.40;101899.00;;;;5011791;28;20199;-50
2023/05/27 03:15:39;;;;;;;4.93;3.50;;;20.20;46.50;20.40;101902.00;;;;5011143;28;20179;-52
2023/05/27 03:18:05;;;;;;;6.93;3.70;;;20.10;46.40;20.40;101900.00;;;;5010845;28;20234;-50
2023/05/27 03:20:30;;;;;;;6.40;4.00;;;20.10;46.50;20.40;101904.00;;;;5011158;28;20231;-52
2023/05/27 03:22:56;;;;;;;7.07;3.80;;;20.10;46.50;20.30;101896.00;;;;5010849;28;20246;-51
2023/05/27 03:25:23;;;;;;;5.97;3.60;;;20.10;46.50;20.30;101899.00;;;;5009399;28;20175;-51
2023/05/27 03:27:49;;;;;;;8.93;4.07;;;20.00;46.50;20.30;101888.00;;;;5010759;28;20199;-51
2023/05/27 03:30:15;;;;;;;6.17;3.73;;;20.00;46.40;20.30;101897.00;;;;5011030;28;20204;-51
2023/05/27 03:32:40;;;;;;;4.20;3.23;;;20.00;46.50;20.20;101899.00;;;;5010927;28;20622;-52
2023/05/27 03:35:06;;;;;;;5.87;3.57;;;20.00;46.50;20.20;101898.00;;;;5013278;28;20760;-52
2023/05/27 03:37:32;;;;;;;4.60;3.37;;;20.00;46.50;20.20;101899.00;;;;5007200;28;20195;-52
2023/05/27 03:39:58;;;;;;;6.57;3.43;;;20.00;46.90;20.00;101896.00;;;;4998695;28;20214;-51
2023/05/27 03:42:23;;;;;;;7.40;3.57;;;19.90;46.60;20.10;101898.00;;;;5010206;28;20231;-52
2023/05/27 03:44:50;;;;;;;8.20;3.73;;;19.80;46.60;20.10;101892.00;;;;5008295;28;20184;-51
2023/05/27 03:47:20;;;;;;;12.27;4.37;;;19.90;46.70;20.10;101888.00;;;;5009867;28;20183;-50
2023/05/27 03:49:46;;;;;;;9.13;4.43;;;19.80;46.70;20.10;101890.00;;;;5010365;28;20199;-51
2023/05/27 03:52:11;;;;;;;8.90;3.80;;;19.80;46.90;20.10;101888.00;;;;5010122;28;20562;-51
2023/05/27 03:54:37;;;;;;;8.00;4.00;;;19.80;46.90;20.10;101892.00;;;;5009055;28;20214;-52
2023/05/27 03:57:03;;;;;;;7.10;3.67;;;19.80;47.10;20.00;101884.00;;;;5009686;28;20634;-51
2023/05/27 03:59:29;;;;;;;8.50;4.13;;;19.80;47.10;20.00;101880.00;;;;5009799;28;20207;-50
2023/05/27 04:01:55;;;;;;;5.67;3.53;;;19.80;47.10;20.00;101876.00;;;;5009777;28;20203;-51
2023/05/27 04:04:20;;;;;;;7.03;3.70;;;19.80;47.10;20.00;101875.00;;;;5006961;28;20257;-51
2023/05/27 04:06:46;;;;;;;8.83;3.80;;;19.80;47.10;19.90;101875.00;;;;5009688;28;20548;-51
2023/05/27 04:09:12;;;;;;;8.10;3.70;;;19.70;47.10;19.90;101872.00;;;;5008529;28;20277;-51
2023/05/27 04:11:38;;;;;;;5.10;3.53;;;19.70;47.20;19.90;101874.00;;;;5010050;28;20257;-51
2023/05/27 04:14:05;;;;;;;7.13;3.93;;;19.70;47.30;19.90;101878.00;;;;5007702;28;20207;-50
2023/05/27 04:16:33;;;;;;;6.60;3.80;;;19.60;47.20;19.90;101883.00;;;;5009338;28;20180;-51
2023/05/27 04:19:01;;;;;;;6.30;3.50;;;19.60;47.20;19.80;101882.00;;;;5009264;28;20705;-51
2023/05/27 04:21:27;;;;;;;4.83;3.50;;;19.60;47.30;19.80;101872.00;;;;5009337;28;20573;-50
2023/05/27 04:23:52;;;;;;;7.17;3.63;;;19.60;47.30;19.80;101872.00;;;;5008461;28;20214;-50
2023/05/27 04:26:19;;;;;;;5.93;3.73;;;19.60;47.40;19.80;101875.00;;;;5012600;28;20246;-51
2023/05/27 04:28:45;;;;;;;7.57;3.67;;;19.50;47.40;19.80;101878.00;;;;5011608;28;20205;-50
2023/05/27 04:31:12;;;;;;;5.77;3.50;;;19.50;47.50;19.70;101875.00;;;;5011208;28;20183;-50
2023/05/27 04:33:39;;;;;;;5.23;3.43;;;19.40;47.50;19.70;101882.00;;;;5010994;28;20187;-50
2023/05/27 04:36:06;;;;;;;8.20;3.97;;;19.40;47.50;19.70;101879.00;;;;5010978;28;20186;-49
2023/05/27 04:38:32;;;;;;;12.93;4.10;;;19.40;47.60;19.70;101877.00;;;;5011377;28;20207;-50
2023/05/27 04:40:59;;;;;;;12.40;4.43;;;19.40;47.70;19.70;101896.00;;;;5016696;28;20253;-50
2023/05/27 04:43:26;;;;;;;13.20;4.33;;;19.40;48.00;19.60;101890.00;;;;5014242;28;20226;-50
2023/05/27 04:45:52;;;;;;;7.97;4.33;;;19.30;48.50;19.60;101885.00;;;;5011256;28;20791;-50
2023/05/27 04:48:19;;;;;;;10.60;4.30;;;19.30;48.50;19.60;101885.00;;;;5010571;28;20227;-50
2023/05/27 04:50:45;;;;;;;9.43;4.07;;;19.30;48.50;19.60;101877.00;;;;5009919;28;20217;-51
2023/05/27 04:53:11;;;;;;;10.03;4.43;;;19.20;48.50;19.60;101893.00;;;;5010462;28;20680;-50
2023/05/27 04:55:38;;;;;;;7.47;4.00;;;19.20;48.80;19.60;101885.00;;;;5014367;28;20184;-50
2023/05/27 04:58:05;;;;;;;10.37;4.00;;;19.20;49.00;19.60;101882.00;;;;5009979;28;20223;-50
2023/05/27 05:00:38;;;;;;;7.37;4.13;;;19.10;49.10;19.60;101772.00;;;;5010291;28;20188;-51
2023/05/27 05:03:05;;;;;;;10.33;4.33;;;19.10;49.10;19.60;101878.00;;;;5008480;28;20698;-51
2023/05/27 05:05:31;;;;;;;8.10;4.80;;;19.10;49.50;19.50;101872.00;;;;5010073;28;20210;-52
2023/05/27 05:07:57;;;;;;;9.37;4.63;;;19.10;49.70;19.60;101872.00;;;;5009790;28;20207;-51
2023/05/27 05:10:23;;;;;;;7.20;4.30;;;19.10;50.00;19.50;101869.00;;;;5010227;28;20187;-51
2023/05/27 05:12:49;;;;;;;8.17;4.17;;;19.00;49.70;19.50;101870.00;;;;5008701;28;20193;-51
2023/05/27 05:15:14;;;;;;;8.27;4.23;;;19.10;50.20;19.50;101874.00;;;;5009833;28;20705;-52
2023/05/27 05:17:40;;;;;;;8.77;4.33;;;19.10;50.20;19.50;101876.00;;;;5009958;28;20729;-52
2023/05/27 05:20:08;;;;;;;6.73;4.17;;;19.00;50.10;19.50;101852.00;;;;5009833;28;20539;-52
2023/05/27 05:22:34;;;;;;;7.10;4.30;;;19.00;50.20;19.50;101876.00;;;;5009589;28;20237;-52
2023/05/27 05:25:00;;;;;;;7.33;3.80;;;19.10;50.20;19.50;101872.00;;;;5009218;28;20250;-52
2023/05/27 05:27:26;;;;;;;12.00;4.30;;;19.00;50.60;19.50;101879.00;;;;5008335;28;20233;-52
2023/05/27 05:29:52;;;;;;;4.40;3.63;;;19.10;50.50;19.50;101874.00;;;;5010053;28;20217;-52
2023/05/27 05:32:18;;;;;;;5.60;4.17;;;19.10;50.40;19.50;101877.00;;;;5008696;28;20799;-51
2023/05/27 05:34:43;;;;;;;6.30;4.37;;;19.10;50.10;19.50;101871.00;;;;5009087;28;20715;-51
2023/05/27 05:37:10;;;;;;;7.13;4.30;;;19.00;50.00;19.40;101869.00;;;;4991940;28;20184;-51
2023/05/27 05:39:36;;;;;;;5.90;3.77;;;19.00;50.20;19.40;101874.00;;;;5013436;28;20934;-51
2023/05/27 05:42:02;;;;;;;6.63;4.10;;;19.00;50.10;19.40;101883.00;;;;5014070;28;20207;-51
2023/05/27 05:44:28;;;;;;;7.13;4.10;;;19.00;50.10;19.40;101872.00;;;;5006224;28;20269;-51
2023/05/27 05:46:54;;;;;;;8.27;4.17;;;19.00;50.10;19.40;101877.00;;;;5006557;28;20686;-51
2023/05/27 05:49:20;;;;;;;5.33;3.70;;;19.00;50.10;19.40;101876.00;;;;5007821;28;20227;-51
2023/05/27 05:51:45;;;;;;;5.30;3.87;;;19.00;50.10;19.40;101876.00;;;;5009662;28;20255;-50
2023/05/27 05:54:11;;;;;;;5.07;4.20;;;19.00;50.10;19.40;101873.00;;;;5010132;28;20179;-51
2023/05/27 05:56:37;;;;;;;6.40;3.97;;;19.00;50.20;19.40;101873.00;;;;5009677;28;20219;-51
2023/05/27 05:59:03;;;;;;;5.67;3.93;;;19.00;50.10;19.40;101875.00;;;;5009424;28;20203;-50
2023/05/27 06:01:28;;;;;;;5.47;3.83;;;19.00;50.10;19.40;101858.00;;;;5009516;28;20237;-52
2023/05/27 06:03:55;;;;;;;5.77;3.63;;;19.10;50.10;19.40;101875.00;;;;5008918;28;20280;-51
2023/05/27 06:06:21;;;;;;;6.67;3.80;;;19.00;50.00;19.40;101875.00;;;;5010297;28;20178;-53
2023/05/27 06:08:47;;;;;;;5.43;3.80;;;19.10;50.10;19.40;101878.00;;;;5007879;28;20214;-51
2023/05/27 06:11:12;;;;;;;5.83;4.00;;;19.10;50.10;19.40;101872.00;;;;5009752;28;20563;-51
2023/05/27 06:13:39;;;;;;;5.67;3.93;;;18.90;50.10;19.30;101874.00;;;;5009072;28;20278;-51
2023/05/27 06:16:05;;;;;;;6.23;3.90;;;18.90;50.10;19.30;101870.00;;;;5008957;28;20256;-51
2023/05/27 06:18:31;;;;;;;6.67;4.47;;;18.80;50.10;19.20;101869.00;;;;5009550;28;20228;-50
2023/05/27 06:20:56;;;;;;;7.20;4.47;;;18.80;50.10;19.20;101863.00;;;;5009458;28;20182;-50
2023/05/27 06:23:22;;;;;;;6.80;4.00;;;18.80;50.20;19.10;101843.00;;;;5008648;28;20258;-51
2023/05/27 06:25:48;;;;;;;9.00;4.53;;;18.70;50.30;19.10;101860.00;;;;5011145;28;20179;-51
2023/05/27 06:28:14;;;;;;;7.10;4.43;;;18.60;50.60;19.10;101854.00;;;;5014480;28;20203;-51
2023/05/27 06:30:40;;;;;;;6.10;4.00;;;18.70;50.70;19.10;101851.00;;;;5013579;28;20746;-50
2023/05/27 06:33:06;;;;;;;6.43;4.30;;;18.70;50.80;19.10;101841.00;;;;5013274;28;20183;-51
2023/05/27 06:35:32;;;;;;;6.30;3.93;;;18.70;50.90;19.20;101855.00;;;;5012063;28;20186;-51
2023/05/27 06:37:58;;;;;;;7.10;4.10;;;18.80;50.80;19.20;101861.00;;;;5012700;28;20203;-50
2023/05/27 06:40:24;;;;;;;7.30;3.90;;;18.80;51.10;19.20;101854.00;;;;5016453;28;20191;-51
2023/05/27 06:42:50;;;;;;;7.07;3.97;;;18.80;50.90;19.20;101849.00;;;;5016551;28;20805;-50
2023/05/27 06:45:16;;;;;;;7.77;4.07;;;18.80;51.00;19.20;101857.00;;;;5013010;28;20187;-51
2023/05/27 06:47:41;;;;;;;5.57;3.60;;;18.80;50.90;19.20;101855.00;;;;5012890;28;20206;-52
2023/05/27 06:50:08;;;;;;;5.60;3.80;;;18.90;51.20;19.30;101847.00;;;;5012779;28;20195;-51
2023/05/27 06:52:33;;;;;;;5.73;3.60;;;18.90;51.20;19.30;101831.00;;;;5010542;28;20182;-50
2023/05/27 06:55:00;;;;;;;7.10;3.87;;;18.90;51.00;19.30;101852.00;;;;5012518;28;20189;-50
2023/05/27 06:57:25;;;;;;;6.57;3.77;;;18.90;51.00;19.30;101842.00;;;;5012953;28;20189;-51
2023/05/27 06:59:51;;;;;;;5.90;4.03;;;18.90;51.00;19.30;101844.00;;;;5018853;28;20206;-51
2023/05/27 07:02:17;;;;;;;5.13;3.63;;;18.90;51.10;19.30;101844.00;;;;5013476;28;20678;-51
2023/05/27 07:04:42;;;;;;;5.33;3.90;;;19.00;51.60;19.20;101840.00;;;;5011428;28;20187;-51
2023/05/27 07:07:08;;;;;;;6.13;3.80;;;18.90;51.60;19.30;101842.00;;;;5011466;28;20188;-50
2023/05/27 07:09:34;;;;;;;6.67;3.70;;;19.00;51.60;19.30;101840.00;;;;5011108;28;20203;-49
2023/05/27 07:12:01;;;;;;;6.33;3.70;;;18.90;51.50;19.30;101826.00;;;;5011760;28;20229;-49
2023/05/27 07:14:27;;;;;;;7.27;3.87;;;18.90;51.50;19.40;101824.00;;;;5010723;28;20187;-50
2023/05/27 07:16:53;;;;;;;6.57;3.50;;;19.00;51.60;19.40;101826.00;;;;5012520;28;20180;-50
2023/05/27 07:19:18;;;;;;;5.53;3.80;;;18.90;51.50;19.40;101821.00;;;;5012702;28;20203;-50
2023/05/27 07:21:44;;;;;;;5.27;3.37;;;18.90;51.60;19.40;101819.00;;;;5012356;28;20643;-50
2023/05/27 07:24:10;;;;;;;5.50;3.50;;;18.90;51.70;19.40;101822.00;;;;5012365;28;20676;-50
2023/05/27 07:26:36;;;;;;;7.03;3.33;;;18.90;51.90;19.40;101819.00;;;;5012556;28;20176;-49
2023/05/27 07:29:02;;;;;;;6.13;3.83;;;18.90;52.00;19.40;101818.00;;;;5012406;28;20209;-50
2023/05/27 07:31:28;;;;;;;7.70;4.10;;;18.90;52.00;19.40;101827.00;;;;5009119;28;20222;-50
2023/05/27 07:33:53;;;;;;;7.33;3.53;;;18.90;52.00;19.40;101815.00;;;;5015354;28;20184;-50
2023/05/27 07:36:19;;;;;;;4.97;3.33;;;18.90;52.20;19.40;101811.00;;;;5014450;28;20664;-50
2023/05/27 07:38:45;;;;;;;4.47;3.33;;;18.90;52.30;19.40;101819.00;;;;5012395;28;20260;-49
2023/05/27 07:41:11;;;;;;;5.53;3.60;;;18.90;52.30;19.40;101809.00;;;;5012059;28;20714;-50
2023/05/27 07:43:37;;;;;;;6.20;3.40;;;18.90;52.20;19.40;101815.00;;;;5011791;28;20341;-51
2023/05/27 07:46:03;;;;;;;4.63;3.30;;;18.90;52.20;19.50;101810.00;;;;5011603;28;20266;-48
2023/05/27 07:48:28;;;;;;;4.40;3.50;;;18.90;52.20;19.50;101767.00;;;;5011630;28;20202;-49
2023/05/27 07:50:55;;;;;;;6.17;3.60;;;18.90;52.20;19.50;101792.00;;;;5011788;28;20329;-49
2023/05/27 07:53:20;;;;;;;4.70;3.60;;;18.90;52.90;19.40;101800.00;;;;5011847;28;20267;-51
2023/05/27 07:55:46;;;;;;;3.93;3.40;;;18.90;52.30;19.50;101803.00;;;;5011238;28;20859;-51
2023/05/27 07:58:13;;;;;;;5.63;3.60;;;18.90;52.50;19.50;101786.00;;;;5011884;28;20722;-51
2023/05/27 08:00:38;;;;;;;5.40;3.63;;;18.90;52.60;19.50;101792.00;;;;5012105;28;20179;-51
2023/05/27 08:03:04;;;;;;;4.83;3.20;;;18.90;52.60;19.50;101782.00;;;;5011820;28;20582;-51
2023/05/27 08:05:30;;;;;;;5.63;3.43;;;18.90;52.70;19.50;101784.00;;;;5011636;28;20215;-51
2023/05/27 08:07:56;;;;;;;4.50;3.40;;;18.90;52.80;19.50;101783.00;;;;5011594;28;20196;-51
2023/05/27 08:10:22;;;;;;;6.10;3.50;;;18.90;52.80;19.50;101771.00;;;;5011493;28;20179;-52
2023/05/27 08:12:47;;;;;;;6.80;3.63;;;18.90;52.90;19.50;101775.00;;;;5011446;28;20753;-49
2023/05/27 08:15:13;;;;;;;6.50;4.03;;;18.90;52.80;19.40;101767.00;;;;5011104;28;20574;-49
2023/05/27 08:17:40;;;;;;;6.07;3.77;;;18.90;52.80;19.50;101768.00;;;;5011401;28;20194;-50
2023/05/27 08:20:07;;;;;;;5.17;3.30;;;18.90;52.90;19.50;101761.00;;;;5011633;28;20250;-50
2023/05/27 08:22:32;;;;;;;6.10;3.47;;;18.90;52.90;19.50;101742.00;;;;5012262;28;20689;-50
2023/05/27 08:24:58;;;;;;;4.63;3.50;;;18.90;52.90;19.50;101744.00;;;;5013507;28;20218;-51
2023/05/27 08:27:57;;;;;;;4.07;3.23;;;18.90;53.00;19.50;101702.00;;;;5014583;28;20186;-50
2023/05/27 08:30:22;;;;;;;5.83;3.57;;;18.90;53.00;19.50;101735.00;;;;5011059;28;20207;-50
2023/05/27 08:32:48;;;;;;;7.27;4.00;;;18.90;53.00;19.50;101746.00;;;;5011674;28;20414;-51
2023/05/27 08:35:14;;;;;;;6.93;3.30;;;18.90;53.00;19.50;101745.00;;;;5011792;28;20185;-51
2023/05/27 08:37:40;;;;;;;6.60;3.60;;;18.90;53.10;19.50;101725.00;;;;5011267;28;20180;-50
2023/05/27 08:40:18;;;;;;;4.40;3.10;;;18.90;53.30;19.50;101734.00;;;;5013019;28;20191;-52
2023/05/27 08:42:44;;;;;;;5.00;3.40;;;18.90;53.30;19.50;101728.00;;;;5014661;28;20203;-52
2023/05/27 08:45:10;;;;;;;5.47;3.67;;;18.90;53.60;19.50;101724.00;;;;5005583;28;20604;-50
2023/05/27 08:47:35;;;;;;;4.30;3.30;;;19.00;53.90;19.60;101731.00;;;;5004751;28;20185;-50
2023/05/27 08:50:02;;;;;;;4.43;3.40;;;18.90;54.10;19.60;101719.00;;;;5008961;28;20650;-50
2023/05/27 08:52:28;;;;;;;4.87;3.50;;;18.90;54.00;19.60;101719.00;;;;5011077;28;20237;-52
2023/05/27 08:54:55;;;;;;;4.13;3.20;;;19.00;54.30;19.40;101718.00;;;;5010917;28;20198;-49
2023/05/27 08:57:21;;;;;;;5.17;3.47;;;19.00;54.30;19.60;101708.00;;;;5009676;28;20215;-51
2023/05/27 08:59:47;;;;;;;5.93;3.63;;;19.00;54.60;19.60;101706.00;;;;5009596;28;20265;-49
2023/05/27 09:02:14;;;;;;;4.30;3.17;;;19.00;54.70;19.60;101709.00;;;;4993491;28;20211;-51
2023/05/27 09:04:40;;;;;;;5.23;3.30;;;19.00;54.80;19.60;101698.00;;;;4993282;28;20677;-50
2023/05/27 09:07:06;;;;;;;5.10;3.30;;;19.00;54.90;19.70;101708.00;;;;5010623;28;20210;-50
2023/05/27 09:09:32;;;;;;;5.40;3.60;;;19.00;55.20;19.70;101707.00;;;;5010562;28;20272;-50
2023/05/27 09:12:05;;;;;;;4.20;3.03;;;19.00;55.20;19.70;101701.00;;;;5010475;28;20646;-50
2023/05/27 09:14:31;;;;;;;4.93;3.20;;;19.00;55.50;19.70;101690.00;;;;5010058;28;20669;-50
2023/05/27 09:16:57;;;;;;;5.23;3.20;;;19.00;55.70;19.70;101698.00;;;;5009715;28;20183;-51
2023/05/27 09:19:23;;;;;;;4.67;3.23;;;19.00;56.00;19.70;101695.00;;;;5009922;28;20199;-50
2023/05/27 09:21:54;;;;;;;6.40;3.93;;;19.10;55.90;19.70;101693.00;;;;5010294;28;20179;-51
2023/05/27 09:24:23;;;;;;;7.10;3.83;;;19.10;53.70;19.70;101686.00;;;;5010038;28;20902;-51
2023/05/27 09:26:51;;;;;;;6.17;4.00;;;19.10;53.80;19.70;101694.00;;;;5009853;28;20249;-51
2023/05/27 09:29:19;;;;;;;6.27;3.80;;;19.10;53.30;19.70;101687.00;;;;5009908;28;20206;-51
2023/05/27 09:31:45;;;;;;;7.03;3.60;;;19.10;53.20;19.70;101685.00;;;;5009533;28;20186;-51
2023/05/27 09:34:17;;;;;;;5.57;3.57;;;19.10;53.50;19.70;101683.00;;;;5008974;28;20587;-51
2023/05/27 09:36:48;;;;;;;5.07;3.50;;;19.10;53.70;19.70;101682.00;;;;5010229;28;20190;-51
2023/05/27 09:39:14;;;;;;;7.30;4.20;;;19.10;53.20;19.70;101675.00;;;;5008925;28;20207;-50
2023/05/27 09:41:40;;;;;;;7.43;4.07;;;19.20;53.20;19.70;101679.00;;;;5009883;28;20183;-51
2023/05/27 09:44:06;;;;;;;7.37;4.00;;;19.20;53.10;19.70;101670.00;;;;5010086;28;20210;-51
2023/05/27 09:46:33;;;;;;;6.33;3.80;;;19.20;53.10;19.80;101669.00;;;;5009713;28;20237;-51
2023/05/27 09:48:59;;;;;;;6.57;4.00;;;19.20;52.90;19.80;101661.00;;;;5008621;28;20218;-52
2023/05/27 09:51:26;;;;;;;14.30;4.30;;;19.20;52.00;19.80;101668.00;;;;5010178;28;20707;-52
2023/05/27 09:53:55;;;;;;;7.57;4.37;;;19.30;51.80;19.80;101664.00;;;;5008389;28;20191;-51
2023/05/27 09:56:26;;;;;;;7.03;4.20;;;19.30;51.10;19.80;101655.00;;;;5008819;28;20534;-52
2023/05/27 09:58:58;;;;;;;7.33;4.00;;;19.30;50.40;19.80;101659.00;;;;5009927;28;20701;-51
2023/05/27 10:01:29;;;;;;;8.07;5.00;;;19.30;49.90;19.90;101647.00;;;;5009309;28;20724;-51
2023/05/27 10:03:56;;;;;;;7.70;4.47;;;19.30;50.70;19.90;101603.00;;;;5009200;28;20207;-51
2023/05/27 10:06:24;;;;;;;7.47;4.00;;;19.30;50.40;19.90;101649.00;;;;5009684;28;20188;-51
2023/05/27 10:08:52;;;;;;;6.03;4.13;;;19.40;50.00;19.90;101644.00;;;;5009952;28;20203;-53
2023/05/27 10:11:18;;;;;;;7.83;4.43;;;19.40;50.50;19.90;101639.00;;;;5010474;28;20188;-52
2023/05/27 10:13:44;;;;;;;7.13;4.40;;;19.40;50.60;20.00;101634.00;;;;5009688;28;20179;-52
2023/05/27 10:16:21;;;;;;;6.97;4.10;;;19.40;49.70;20.00;101629.00;;;;4976669;28;20184;-53
2023/05/27 10:18:52;;;;;;;8.50;4.40;;;19.40;49.70;20.00;101632.00;;;;5009120;28;20211;-51
2023/05/27 10:21:23;;;;;;;9.00;4.33;;;19.50;50.60;20.00;101626.00;;;;5010196;28;20744;-51
2023/05/27 10:24:02;;;;;;;8.27;4.00;;;19.50;51.20;20.10;101622.00;;;;5009774;28;20219;-51
2023/05/27 10:26:45;;;;;;;7.23;4.03;;;19.50;51.70;20.10;101620.00;;;;5010167;28;20266;-51
2023/05/27 10:29:17;;;;;;;6.20;4.33;;;19.60;52.10;20.10;101623.00;;;;5013671;28;20203;-51
2023/05/27 10:31:52;;;;;;;5.80;3.83;;;19.60;51.90;20.10;101626.00;;;;5010607;28;20251;-51
2023/05/27 10:34:18;;;;;;;6.90;4.10;;;19.60;51.80;20.10;101621.00;;;;5009896;28;20202;-51
2023/05/27 10:36:45;;;;;;;6.50;3.90;;;19.60;51.50;20.20;101607.00;;;;5009592;28;20180;-50
2023/05/27 10:39:17;;;;;;;7.53;4.03;;;19.60;51.20;20.20;101615.00;;;;5009447;28;20200;-50
2023/05/27 10:41:53;;;;;;;5.93;3.73;;;19.60;52.10;20.20;101609.00;;;;5010841;28;20182;-49
2023/05/27 10:44:36;;;;;;;5.23;3.47;;;19.70;51.30;20.20;101599.00;;;;5012357;28;20187;-51
2023/05/27 10:47:13;;;;;;;5.87;4.00;;;19.70;50.00;20.30;101594.00;;;;5009641;28;20241;-51